Timberhurst, Indiana
Current Conditions -  °F | °C
As of 9:15 AM on Thursday 23 Oct 2014 (Local Time) from KANQ Reporting Station
Overcast Overcast  
Wind Chill: 30°   Ceiling: 100
Heat Index: 30°   Visibility: 0mi
Dew Point: 16°   Wind: 0mph
Humidity: 55%   Direction: NA
Pressure: 30.25"   Gusts: NA
Location:  41.5677°N, 85.3125°W
Report Text: KANQ 231315Z AUTO 00000KT M1/4SM OVC001 M01/M09 A3025 RMK
Loading
Personal Weather Stations






























Interactive Weather Map New forecast layout! Learn more

10-Day Weather Forecast

Advertisements
Track Severe Weather on mobile